createdAt,value
2023-02-07T00:00:16.688Z,0.10
2023-02-07T00:05:18.717Z,0.10
2023-02-07T00:10:21.057Z,0.00
2023-02-07T00:15:23.241Z,-0.10
2023-02-07T00:20:25.488Z,-0.10
2023-02-07T00:25:27.687Z,-0.20
2023-02-07T00:30:29.910Z,-0.10
2023-02-07T00:35:32.204Z,-0.20
2023-02-07T00:40:34.390Z,-0.30
2023-02-07T00:45:36.982Z,-0.30
2023-02-07T00:50:39.423Z,-0.40
2023-02-07T00:55:41.602Z,-0.40
2023-02-07T01:00:43.962Z,-0.50
2023-02-07T01:05:46.241Z,-0.50
2023-02-07T01:10:49.002Z,-0.50
2023-02-07T01:15:51.234Z,-0.50
2023-02-07T01:20:53.434Z,-0.50
2023-02-07T01:25:55.635Z,-0.50
2023-02-07T01:30:58.779Z,-0.60
2023-02-07T01:36:09.966Z,-0.60
2023-02-07T01:41:14.010Z,-0.60
2023-02-07T01:46:16.300Z,-0.60
2023-02-07T01:51:18.637Z,-0.60
2023-02-07T01:56:31.263Z,-0.70
2023-02-07T02:01:36.216Z,-0.80
2023-02-07T02:06:39.267Z,-0.70
2023-02-07T02:12:06.105Z,-0.80
2023-02-07T02:17:25.228Z,-0.70
2023-02-07T02:22:51.254Z,-0.70
2023-02-07T02:27:59.858Z,-0.70
2023-02-07T02:33:41.881Z,-0.80
2023-02-07T02:39:17.235Z,-0.80
2023-02-07T02:44:29.321Z,-0.80
2023-02-07T02:49:34.598Z,-0.90
2023-02-07T02:54:38.524Z,-1.00
2023-02-07T03:00:21.940Z,-1.00
2023-02-07T03:05:34.120Z,-1.00
2023-02-07T03:10:43.038Z,-1.00
2023-02-07T03:15:51.559Z,-1.00
2023-02-07T03:21:03.193Z,-1.10
2023-02-07T03:26:07.714Z,-1.10
2023-02-07T03:31:13.435Z,-1.10
2023-02-07T03:36:24.731Z,-1.20
2023-02-07T03:41:36.069Z,-1.20
2023-02-07T03:46:39.092Z,-1.20
2023-02-07T03:51:41.520Z,-1.20
2023-02-07T03:56:43.842Z,-1.20
2023-02-07T04:01:46.308Z,-1.20
2023-02-07T04:06:48.440Z,-1.30
2023-02-07T04:11:51.529Z,-1.30
2023-02-07T04:16:53.695Z,-1.20
2023-02-07T04:21:55.924Z,-1.30
2023-02-07T04:26:59.175Z,-1.30
2023-02-07T04:32:02.838Z,-1.30
2023-02-07T04:37:05.331Z,-1.30
2023-02-07T04:42:07.766Z,-1.40
2023-02-07T04:47:09.941Z,-1.40
2023-02-07T04:52:12.147Z,-1.40
2023-02-07T04:57:14.394Z,-1.50
2023-02-07T05:02:16.567Z,-1.60
2023-02-07T05:07:18.975Z,-1.50
2023-02-07T05:12:21.130Z,-1.50
2023-02-07T05:17:23.304Z,-1.40
2023-02-07T05:22:25.532Z,-1.50
2023-02-07T05:27:27.770Z,-1.50
2023-02-07T05:32:48.539Z,-1.60
2023-02-07T05:37:50.888Z,-1.60
2023-02-07T05:42:53.403Z,-1.60
2023-02-07T05:47:55.812Z,-1.70
2023-02-07T05:52:58.069Z,-1.70
2023-02-07T05:58:00.269Z,-1.80
2023-02-07T06:03:02.476Z,-1.80
2023-02-07T06:08:04.849Z,-1.90
2023-02-07T06:13:07.059Z,-1.90
2023-02-07T06:18:09.240Z,-2.00
2023-02-07T06:23:11.431Z,-2.00
2023-02-07T06:28:13.712Z,-1.90
2023-02-07T06:33:16.063Z,-2.00
2023-02-07T06:38:18.569Z,-2.00
2023-02-07T06:43:20.846Z,-2.00
2023-02-07T06:48:22.941Z,-2.00
2023-02-07T06:53:25.246Z,-2.10
2023-02-07T06:58:27.394Z,-2.00
2023-02-07T07:03:29.656Z,-2.00
2023-02-07T07:08:31.770Z,-2.10
2023-02-07T07:13:33.929Z,-2.10
2023-02-07T07:18:38.550Z,-2.10
2023-02-07T07:23:40.745Z,-2.10
2023-02-07T07:28:42.861Z,-2.10
2023-02-07T07:33:45.171Z,-2.10
2023-02-07T07:38:47.997Z,-2.00
2023-02-07T07:43:50.377Z,-2.10
2023-02-07T07:48:52.962Z,-2.00
2023-02-07T07:53:55.139Z,-2.00
2023-02-07T07:58:57.664Z,-2.00
2023-02-07T08:03:59.813Z,-2.00
2023-02-07T08:09:01.986Z,-2.00
2023-02-07T08:14:04.131Z,-1.90
2023-02-07T08:19:06.230Z,-1.80
2023-02-07T08:24:08.442Z,-1.70
2023-02-07T08:29:12.093Z,-1.60
2023-02-07T08:34:14.563Z,-1.70
2023-02-07T08:39:16.787Z,-1.50
2023-02-07T08:44:18.965Z,-1.40
2023-02-07T08:49:21.117Z,-1.30
2023-02-07T08:54:23.198Z,-1.20
2023-02-07T08:59:25.395Z,-1.00
2023-02-07T09:04:27.625Z,-0.80
2023-02-07T09:09:29.785Z,-0.60
2023-02-07T09:14:32.356Z,-0.30
2023-02-07T09:19:36.181Z,0.30
2023-02-07T09:24:38.493Z,1.50
2023-02-07T09:29:40.979Z,2.90
2023-02-07T09:34:43.360Z,3.70
2023-02-07T09:39:45.497Z,4.20
2023-02-07T09:45:10.671Z,4.50
2023-02-07T09:50:20.199Z,4.90
2023-02-07T09:55:24.428Z,5.30
2023-02-07T10:00:30.914Z,5.60
2023-02-07T10:05:49.457Z,5.80
2023-02-07T10:11:16.886Z,6.10
2023-02-07T10:16:25.276Z,6.30
2023-02-07T10:21:40.454Z,6.50
2023-02-07T10:26:51.285Z,6.60
2023-02-07T10:31:55.965Z,6.80
2023-02-07T10:36:59.208Z,7.10
2023-02-07T10:42:01.549Z,7.40
2023-02-07T10:47:07.744Z,7.50
2023-02-07T10:52:28.817Z,7.60
2023-02-07T10:57:31.403Z,7.60
2023-02-07T11:02:44.404Z,7.50
2023-02-07T11:08:01.740Z,7.60
2023-02-07T11:13:11.999Z,7.80
2023-02-07T11:18:44.513Z,8.00
2023-02-07T11:23:50.370Z,8.20
2023-02-07T11:29:01.906Z,8.20
2023-02-07T11:34:37.986Z,8.40
2023-02-07T11:39:41.129Z,8.30
2023-02-07T11:44:45.555Z,8.40
2023-02-07T11:49:52.731Z,8.30
2023-02-07T11:55:02.407Z,8.30
2023-02-07T12:00:20.629Z,7.80
2023-02-07T12:05:27.112Z,7.50
2023-02-07T12:10:36.482Z,7.60
2023-02-07T12:15:40.918Z,7.60
2023-02-07T12:21:07.076Z,7.50
2023-02-07T12:26:33.363Z,7.50
2023-02-07T12:31:56.224Z,7.40
2023-02-07T12:37:18.217Z,7.40
2023-02-07T12:42:23.287Z,7.40
2023-02-07T12:47:52.947Z,7.50
2023-02-07T12:53:08.843Z,7.60
2023-02-07T12:58:19.703Z,7.60
2023-02-07T13:03:49.586Z,7.70
2023-02-07T13:09:07.599Z,7.80
2023-02-07T13:14:22.890Z,7.90
2023-02-07T13:19:44.421Z,7.80
2023-02-07T13:24:48.115Z,7.80
2023-02-07T13:29:52.828Z,7.70
2023-02-07T13:35:15.148Z,7.80
2023-02-07T13:40:24.853Z,7.90
2023-02-07T13:45:45.726Z,8.00
2023-02-07T13:51:10.083Z,7.90
2023-02-07T13:56:33.076Z,7.80
2023-02-07T14:01:36.939Z,7.80
2023-02-07T14:06:42.900Z,7.80
2023-02-07T14:12:07.202Z,7.80
2023-02-07T14:17:13.806Z,7.70
2023-02-07T14:22:29.477Z,7.70
2023-02-07T14:27:35.953Z,7.70
2023-02-07T14:33:02.453Z,7.70
2023-02-07T14:38:07.395Z,7.70
2023-02-07T14:43:12.512Z,7.70
2023-02-07T14:48:33.947Z,7.70
2023-02-07T14:53:44.845Z,7.80
2023-02-07T14:58:48.113Z,7.80
2023-02-07T15:04:05.402Z,7.80
2023-02-07T15:09:18.753Z,7.80
2023-02-07T15:14:28.338Z,7.80
2023-02-07T15:19:41.205Z,7.60
2023-02-07T15:24:51.429Z,7.60
2023-02-07T15:29:57.949Z,7.50
2023-02-07T15:35:19.668Z,7.50
2023-02-07T15:40:25.689Z,7.40
2023-02-07T15:45:31.148Z,7.40
2023-02-07T15:50:34.151Z,7.30
2023-02-07T15:55:48.469Z,7.30
2023-02-07T16:00:55.453Z,7.20
2023-02-07T16:06:20.980Z,7.10
2023-02-07T16:11:26.361Z,7.00
2023-02-07T16:16:35.911Z,7.00
2023-02-07T16:21:38.070Z,6.90
2023-02-07T16:26:40.939Z,6.90
2023-02-07T16:31:43.952Z,6.90
2023-02-07T16:36:53.475Z,6.80
2023-02-07T16:42:01.380Z,6.60
2023-02-07T16:47:03.553Z,6.60
2023-02-07T16:52:05.708Z,6.50
2023-02-07T16:57:10.252Z,6.50
2023-02-07T17:02:15.384Z,6.40
2023-02-07T17:07:17.619Z,6.20
2023-02-07T17:12:19.744Z,6.10
2023-02-07T17:17:23.406Z,5.90
2023-02-07T17:22:25.525Z,5.90
2023-02-07T17:27:27.798Z,5.70
2023-02-07T17:32:29.876Z,5.60
2023-02-07T17:37:31.989Z,5.50
2023-02-07T17:42:34.049Z,5.40
2023-02-07T17:47:36.188Z,5.30
2023-02-07T17:52:38.339Z,5.30
2023-02-07T17:57:41.630Z,5.10
2023-02-07T18:02:46.556Z,5.10
2023-02-07T18:07:51.773Z,4.90
2023-02-07T18:12:54.200Z,4.90
2023-02-07T18:17:56.676Z,4.70
2023-02-07T18:22:59.893Z,4.60
2023-02-07T18:28:02.355Z,4.50
2023-02-07T18:33:04.684Z,4.40
2023-02-07T18:38:06.790Z,4.20
2023-02-07T18:43:10.960Z,4.00
2023-02-07T18:48:15.493Z,3.70
2023-02-07T18:53:28.561Z,3.50
2023-02-07T18:58:48.582Z,3.50
2023-02-07T19:04:01.965Z,3.60
2023-02-07T19:09:05.058Z,3.60
2023-02-07T19:14:20.283Z,3.60
2023-02-07T19:19:24.999Z,3.70
2023-02-07T19:24:28.711Z,3.70
2023-02-07T19:29:33.263Z,3.50
2023-02-07T19:34:37.888Z,3.40
2023-02-07T19:39:40.155Z,3.20
2023-02-07T19:44:42.295Z,3.20
2023-02-07T19:49:45.772Z,3.00
2023-02-07T19:54:48.150Z,3.00
2023-02-07T19:59:51.063Z,3.00
2023-02-07T20:04:54.836Z,3.10
2023-02-07T20:10:01.406Z,3.20
2023-02-07T20:15:04.205Z,3.30
2023-02-07T20:20:06.779Z,3.20
2023-02-07T20:25:08.992Z,3.10
2023-02-07T20:30:11.832Z,2.80
2023-02-07T20:35:14.801Z,3.10
2023-02-07T20:40:18.102Z,3.00
2023-02-07T20:45:20.535Z,2.90
2023-02-07T20:50:22.788Z,2.60
2023-02-07T20:55:25.039Z,2.40
2023-02-07T21:00:27.140Z,2.20
2023-02-07T21:05:29.218Z,2.10
2023-02-07T21:10:31.292Z,2.00
2023-02-07T21:15:33.394Z,1.80
2023-02-07T21:20:38.222Z,1.70
2023-02-07T21:25:41.477Z,1.60
2023-02-07T21:30:43.728Z,1.50
2023-02-07T21:35:46.229Z,1.40
2023-02-07T21:40:48.299Z,1.30
2023-02-07T21:45:50.412Z,1.40
2023-02-07T21:50:52.601Z,1.30
2023-02-07T21:55:54.778Z,1.20
2023-02-07T22:00:57.093Z,1.20
2023-02-07T22:05:59.209Z,1.20
2023-02-07T22:11:09.039Z,1.20
2023-02-07T22:16:13.535Z,1.10
2023-02-07T22:21:19.615Z,1.00
2023-02-07T22:26:22.127Z,1.00
2023-02-07T22:31:27.477Z,0.90
2023-02-07T22:36:33.522Z,1.00
2023-02-07T22:41:36.544Z,1.00
2023-02-07T22:46:38.978Z,1.00
2023-02-07T22:51:41.285Z,0.80
2023-02-07T22:56:44.989Z,0.70
2023-02-07T23:01:47.767Z,0.70
2023-02-07T23:06:49.907Z,0.60
2023-02-07T23:11:52.010Z,0.70
2023-02-07T23:16:54.129Z,0.70
2023-02-07T23:21:58.926Z,0.70
2023-02-07T23:27:01.208Z,0.70
2023-02-07T23:32:04.796Z,0.60
2023-02-07T23:37:06.930Z,0.40
2023-02-07T23:42:10.492Z,0.30
2023-02-07T23:47:12.635Z,0.20
2023-02-07T23:52:14.919Z,0.20
2023-02-07T23:57:17.173Z,0.10
